Time;durP1;ratioP1;P1;durP2;ratioP2;P2;SDS_P1;SDS_P2;PMS_P1;PMS_P2;Temp;Humidity;BMP_temperature;BMP_pressure;BME280_temperature;BME280_humidity;BME280_pressure;Samples;Min_cycle;Max_cycle;Signal;HPM_P1;HPM_P2
2022/04/13 00:00:39;;;;;;;;;;;;;;;;;;5115542;28;19908;-75
2022/04/13 00:03:05;;;;;;;;;;;;;;;;;;5115900;28;19930;-75
2022/04/13 00:05:32;;;;;;;;;;;;;;;;;;5096717;28;19915;-75
2022/04/13 00:07:58;;;;;;;;;;;;;;;;;;5115836;28;19912;-75
2022/04/13 00:10:24;;;;;;;;;;;;;;;;;;5115010;28;20003;-75
2022/04/13 00:12:50;;;;;;;;;;;;;;;;;;5097469;28;19960;-75
2022/04/13 00:15:16;;;;;;;;;;;;;;;;;;5114557;28;20430;-75
2022/04/13 00:17:41;;;;;;;;;;;;;;;;;;5115419;28;19912;-75
2022/04/13 00:20:07;;;;;;;;;;;;;;;;;;5115570;28;19912;-75
2022/04/13 00:22:33;;;;;;;;;;;;;;;;;;5114750;28;20383;-75
2022/04/13 00:24:59;;;;;;;;;;;;;;;;;;5115434;28;19961;-75
2022/04/13 00:27:25;;;;;;;;;;;;;;;;;;5114524;28;20387;-75
2022/04/13 00:29:51;;;;;;;;;;;;;;;;;;5115426;28;20011;-75
2022/04/13 00:32:17;;;;;;;;;;;;;;;;;;5114815;28;20368;-74
2022/04/13 00:34:43;;;;;;;;;;;;;;;;;;5096839;28;20280;-75
2022/04/13 00:37:09;;;;;;;;;;;;;;;;;;5115249;28;19915;-75
2022/04/13 00:39:34;;;;;;;;;;;;;;;;;;5096168;28;20018;-75
2022/04/13 00:42:00;;;;;;;;;;;;;;;;;;5115078;28;19908;-75
2022/04/13 00:44:27;;;;;;;;;;;;;;;;;;5114347;28;19918;-75
2022/04/13 00:46:53;;;;;;;;;;;;;;;;;;5114904;28;19927;-75
2022/04/13 00:49:19;;;;;;;;;;;;;;;;;;5114219;28;19916;-75
2022/04/13 00:51:45;;;;;;;;;;;;;;;;;;5114475;28;19908;-75
2022/04/13 00:54:11;;;;;;;;;;;;;;;;;;5114865;28;20368;-75
2022/04/13 00:56:37;;;;;;;;;;;;;;;;;;5114118;28;19908;-75
2022/04/13 00:59:03;;;;;;;;;;;;;;;;;;5114781;28;19908;-75
2022/04/13 01:01:29;;;;;;;;;;;;;;;;;;5114027;28;19973;-75
2022/04/13 01:03:55;;;;;;;;;;;;;;;;;;5114766;28;20380;-75
2022/04/13 01:06:20;;;;;;;;;;;;;;;;;;5113874;28;19908;-74
2022/04/13 01:08:46;;;;;;;;;;;;;;;;;;5114649;28;20398;-75
2022/04/13 01:11:12;;;;;;;;;;;;;;;;;;5114608;28;19931;-75
2022/04/13 01:13:39;;;;;;;;;;;;;;;;;;5113767;28;20519;-75
2022/04/13 01:16:04;;;;;;;;;;;;;;;;;;5114469;28;19988;-75
2022/04/13 01:18:30;;;;;;;;;;;;;;;;;;5113573;28;20009;-75
2022/04/13 01:20:57;;;;;;;;;;;;;;;;;;5096116;28;19938;-75
2022/04/13 01:23:23;;;;;;;;;;;;;;;;;;5113702;28;19908;-75
2022/04/13 01:25:49;;;;;;;;;;;;;;;;;;5096031;28;19908;-75
2022/04/13 01:28:14;;;;;;;;;;;;;;;;;;5094877;28;20317;-75
2022/04/13 01:30:40;;;;;;;;;;;;;;;;;;5113404;28;19911;-75
2022/04/13 01:33:06;;;;;;;;;;;;;;;;;;5114180;28;19919;-75
2022/04/13 01:35:32;;;;;;;;;;;;;;;;;;5113351;28;19951;-75
2022/04/13 01:37:58;;;;;;;;;;;;;;;;;;5114129;28;19908;-75
2022/04/13 01:40:24;;;;;;;;;;;;;;;;;;5113204;28;19908;-75
2022/04/13 01:42:50;;;;;;;;;;;;;;;;;;5095657;28;20352;-75
2022/04/13 01:45:19;;;;;;;;;;;;;;;;;;5113892;28;19911;-75
2022/04/13 01:47:45;;;;;;;;;;;;;;;;;;5113180;28;19959;-75
2022/04/13 01:50:11;;;;;;;;;;;;;;;;;;5113807;28;19912;-75
2022/04/13 01:52:37;;;;;;;;;;;;;;;;;;5112993;28;19908;-75
2022/04/13 01:55:03;;;;;;;;;;;;;;;;;;5113806;28;20273;-75
2022/04/13 01:57:29;;;;;;;;;;;;;;;;;;5112885;28;19957;-74
2022/04/13 01:59:55;;;;;;;;;;;;;;;;;;5113639;28;20387;-75
2022/04/13 02:02:21;;;;;;;;;;;;;;;;;;5113259;28;19915;-75
2022/04/13 02:04:48;;;;;;;;;;;;;;;;;;5113242;28;20329;-75
2022/04/13 02:07:14;;;;;;;;;;;;;;;;;;5113506;28;19907;-75
2022/04/13 02:09:40;;;;;;;;;;;;;;;;;;5094377;28;20466;-75
2022/04/13 02:12:06;;;;;;;;;;;;;;;;;;5113429;28;19915;-75
2022/04/13 02:14:32;;;;;;;;;;;;;;;;;;5112543;28;20436;-75
2022/04/13 02:16:57;;;;;;;;;;;;;;;;;;5113262;28;19919;-75
2022/04/13 02:19:23;;;;;;;;;;;;;;;;;;5112717;28;19958;-75
2022/04/13 02:21:49;;;;;;;;;;;;;;;;;;5113475;28;19961;-75
2022/04/13 02:24:15;;;;;;;;;;;;;;;;;;5113226;28;20424;-75
2022/04/13 02:26:41;;;;;;;;;;;;;;;;;;5112416;28;19919;-75
2022/04/13 02:29:07;;;;;;;;;;;;;;;;;;5113117;28;20394;-75
2022/04/13 02:31:33;;;;;;;;;;;;;;;;;;5112315;28;19964;-75
2022/04/13 02:33:59;;;;;;;;;;;;;;;;;;5113211;28;20352;-75
2022/04/13 02:36:25;;;;;;;;;;;;;;;;;;5112480;28;20364;-74
2022/04/13 02:38:51;;;;;;;;;;;;;;;;;;5112789;28;19908;-75
2022/04/13 02:41:16;;;;;;;;;;;;;;;;;;5113012;28;19965;-75
2022/04/13 02:43:43;;;;;;;;;;;;;;;;;;5112078;28;19912;-75
2022/04/13 02:46:09;;;;;;;;;;;;;;;;;;5094629;28;19912;-75
2022/04/13 02:48:35;;;;;;;;;;;;;;;;;;5093521;28;20375;-75
2022/04/13 02:56:03;;;;;;;;;;;;;;;;;;5111229;27;19954;-75
2022/04/13 02:58:29;;;;;;;;;;;;;;;;;;5109454;28;19912;-75
2022/04/13 03:00:55;;;;;;;;;;;;;;;;;;5110180;28;19957;-75
2022/04/13 03:03:21;;;;;;;;;;;;;;;;;;5110184;28;19999;-75
2022/04/13 03:05:47;;;;;;;;;;;;;;;;;;5109275;28;19915;-75
2022/04/13 03:08:13;;;;;;;;;;;;;;;;;;5110044;28;20276;-76
2022/04/13 03:10:39;;;;;;;;;;;;;;;;;;5109257;28;20368;-75
2022/04/13 03:13:05;;;;;;;;;;;;;;;;;;5109979;28;19999;-75
2022/04/13 03:15:31;;;;;;;;;;;;;;;;;;5109387;28;19908;-75
2022/04/13 03:17:57;;;;;;;;;;;;;;;;;;5109924;28;20391;-75
2022/04/13 03:20:23;;;;;;;;;;;;;;;;;;5109816;28;19908;-76
2022/04/13 03:22:50;;;;;;;;;;;;;;;;;;5090932;28;19957;-75
2022/04/13 03:25:16;;;;;;;;;;;;;;;;;;5091351;28;19916;-75
2022/04/13 03:27:42;;;;;;;;;;;;;;;;;;5108854;28;19923;-75
2022/04/13 03:30:07;;;;;;;;;;;;;;;;;;5109639;28;19908;-75
2022/04/13 03:32:33;;;;;;;;;;;;;;;;;;5108756;28;19908;-75
2022/04/13 03:34:59;;;;;;;;;;;;;;;;;;5091318;28;19908;-75
2022/04/13 03:37:25;;;;;;;;;;;;;;;;;;5109357;28;20372;-74
2022/04/13 03:39:51;;;;;;;;;;;;;;;;;;5109252;28;19992;-75
2022/04/13 03:42:17;;;;;;;;;;;;;;;;;;5109424;28;20295;-75
2022/04/13 03:44:43;;;;;;;;;;;;;;;;;;5108498;28;19912;-75
2022/04/13 03:47:09;;;;;;;;;;;;;;;;;;5109283;28;19908;-75
2022/04/13 03:49:35;;;;;;;;;;;;;;;;;;5108525;28;19912;-75
2022/04/13 03:52:00;;;;;;;;;;;;;;;;;;5109253;28;19931;-75
2022/04/13 03:54:26;;;;;;;;;;;;;;;;;;5108733;28;19924;-75
2022/04/13 03:56:53;;;;;;;;;;;;;;;;;;5108688;28;19907;-75
2022/04/13 03:59:20;;;;;;;;;;;;;;;;;;5090925;28;20344;-75
2022/04/13 04:01:46;;;;;;;;;;;;;;;;;;5108274;28;20422;-75
2022/04/13 04:04:12;;;;;;;;;;;;;;;;;;5108925;28;19912;-75
2022/04/13 04:06:38;;;;;;;;;;;;;;;;;;5098257;28;19915;-75
2022/04/13 04:09:04;;;;;;;;;;;;;;;;;;5095433;28;19920;-75
2022/04/13 04:11:30;;;;;;;;;;;;;;;;;;5094758;28;20387;-74
2022/04/13 04:13:56;;;;;;;;;;;;;;;;;;5095165;28;19964;-76
2022/04/13 04:16:22;;;;;;;;;;;;;;;;;;5095192;28;19908;-75
2022/04/13 04:18:50;;;;;;;;;;;;;;;;;;5094325;28;20376;-75
2022/04/13 04:21:16;;;;;;;;;;;;;;;;;;5095096;28;19920;-76
2022/04/13 04:23:42;;;;;;;;;;;;;;;;;;5076028;28;19924;-75
2022/04/13 04:26:08;;;;;;;;;;;;;;;;;;5094953;28;19915;-75
2022/04/13 04:28:33;;;;;;;;;;;;;;;;;;5094141;28;19916;-75
2022/04/13 04:30:59;;;;;;;;;;;;;;;;;;5094981;28;19908;-75
2022/04/13 04:33:26;;;;;;;;;;;;;;;;;;5094922;28;19909;-76
2022/04/13 04:35:52;;;;;;;;;;;;;;;;;;5075945;28;19903;-76
2022/04/13 04:38:18;;;;;;;;;;;;;;;;;;5094815;28;19908;-76
2022/04/13 04:40:43;;;;;;;;;;;;;;;;;;5094012;28;19908;-75
2022/04/13 04:43:09;;;;;;;;;;;;;;;;;;5094660;28;20356;-75
2022/04/13 04:45:35;;;;;;;;;;;;;;;;;;5084636;28;19916;-75
2022/04/13 04:48:04;;;;;;;;;;;;;;;;;;5094554;28;19951;-75
2022/04/13 04:50:30;;;;;;;;;;;;;;;;;;5094399;28;19999;-75
2022/04/13 04:52:56;;;;;;;;;;;;;;;;;;5094114;28;20019;-75
2022/04/13 04:55:22;;;;;;;;;;;;;;;;;;5094213;28;20061;-75
2022/04/13 04:57:48;;;;;;;;;;;;;;;;;;5093609;28;19908;-75
2022/04/13 05:00:14;;;;;;;;;;;;;;;;;;5094361;28;19919;-75
2022/04/13 05:02:40;;;;;;;;;;;;;;;;;;5093574;28;19908;-75
2022/04/13 05:05:06;;;;;;;;;;;;;;;;;;5075201;28;20364;-75
2022/04/13 05:07:32;;;;;;;;;;;;;;;;;;5077761;28;20284;-75
2022/04/13 05:10:00;;;;;;;;;;;13.90;27.90;;;;;;5073627;28;19935;-75
2022/04/13 05:12:26;;;;;;;;;;;;;;;;;;5073856;28;19966;-75
2022/04/13 05:14:54;;;;;;;;;;;;;;;;;;5078253;28;19912;-75
2022/04/13 05:17:20;;;;;;;;;;;;;;;;;;5093030;28;19912;-75
2022/04/13 05:19:46;;;;;;;;;;;;;;;;;;5091378;28;19916;-75
2022/04/13 05:22:12;;;;;;;;;;;;;;;;;;5087394;28;20300;-74
2022/04/13 05:24:38;;;;;;;;;;;;;;;;;;5072944;28;19916;-75
2022/04/13 05:27:04;;;;;;;;;;;;;;;;;;5087015;28;20340;-74
2022/04/13 05:29:30;;;;;;;;;;;;;;;;;;5093797;28;20006;-74
2022/04/13 05:31:56;;;;;;;;;;;;;;;;;;5074738;28;19935;-72
2022/04/13 05:34:21;;;;;;;;;;;;;;;;;;5093690;28;20284;-71
2022/04/13 05:36:47;;;;;;;;;;;;;;;;;;5092845;28;19908;-70
2022/04/13 05:39:13;;;;;;;;;;;;;;;;;;5093578;28;20370;-71
2022/04/13 05:41:40;;;;;;;;;;;;;;;;;;5060509;28;19909;-69
2022/04/13 05:44:06;;;;;;;;;;;;;;;;;;5060699;28;19961;-71
2022/04/13 05:46:33;;;;;;;;;;;;;;;;;;5092537;28;19908;-70
2022/04/13 05:48:59;;;;;;;;;;;;;;;;;;5080509;28;19915;-73
2022/04/13 05:51:25;;;;;;;;;;;;;;;;;;5073124;28;19916;-71
2022/04/13 05:53:51;;;;;;;;;;;;;;;;;;5054208;28;20346;-71
2022/04/13 05:56:17;;;;;;;;;;;;;;;;;;5073135;28;19904;-71
2022/04/13 05:58:43;;;;;;;;;;;;;;;;;;5072137;28;19916;-71
2022/04/13 06:01:09;;;;;;;;;;;;;;;;;;5073094;28;20384;-71
2022/04/13 06:03:35;;;;;;;;;;;;;;;;;;5072544;28;19942;-74
2022/04/13 06:06:01;;;;;;;;;;;;;;;;;;5054771;28;20288;-72
2022/04/13 06:08:26;;;;;;;;;;;;;;;;;;5074386;28;19919;-71
2022/04/13 06:10:52;;;;;;;;;;;;;;;;;;5071971;28;19908;-72
2022/04/13 06:13:18;;;;;;;;;;;;;;;;;;5072822;28;20276;-72
2022/04/13 06:15:44;;;;;;;;;;;;;;;;;;5071933;28;19908;-72
2022/04/13 06:18:10;;;;;;;;;;;;;;;;;;5079656;28;20418;-72
2022/04/13 06:20:36;;;;;;;;;;;;;;;;;;5080469;28;19908;-74
2022/04/13 06:23:02;;;;;;;;;;;;;;;;;;5081391;28;19914;-72
2022/04/13 06:25:28;;;;;;;;;;;;;;;;;;5082160;28;19927;-72
2022/04/13 06:27:54;;;;;;;;;;;;;;;;;;5079352;28;19966;-72
2022/04/13 06:30:19;;;;;;;;;;;;;;;;;;5074393;28;19938;-72
2022/04/13 06:32:45;;;;;;;;;;;;;;;;;;5071712;28;19908;-72
2022/04/13 06:35:11;;;;;;;;;;;;;;;;;;5072564;28;19912;-72
2022/04/13 06:37:37;;;;;;;;;;;;;;;;;;5072041;28;19915;-73
2022/04/13 06:40:03;;;;;;;;;;;;;;;;;;5054185;28;19909;-75
2022/04/13 06:42:29;;;;;;;;;;;;;;;;;;5083414;28;20403;-69
2022/04/13 06:44:55;;;;;;;;;;;;;;;;;;5083953;28;19919;-72
2022/04/13 06:47:21;;;;;;;;;;;;;;;;;;5082567;28;19919;-71
2022/04/13 06:49:47;;;;;;;;;;;;;;;;;;5079102;28;19908;-71
2022/04/13 06:52:13;;;;;;;;;;;;;;;;;;5076645;28;19961;-70
2022/04/13 06:54:39;;;;;;;;;;;;;;;;;;5085090;28;20372;-74
2022/04/13 06:57:04;;;;;;;;;;;;;;;;;;5093677;28;19912;-72
2022/04/13 06:59:30;;;;;;;;;;;;;;;;;;5093994;28;19915;-72
2022/04/13 07:01:56;;;;;;;;;;;;;;;;;;5094210;28;19909;-71
2022/04/13 07:04:22;;;;;;;;;;;;;;;;;;5092384;28;19913;-72
2022/04/13 07:06:48;;;;;;;;;;;;;;;;;;5073437;28;19955;-72
2022/04/13 07:09:14;;;;;;;;;;;;;;;;;;5092276;28;19945;-73
2022/04/13 07:11:40;;;;;;;;;;;;;;;;;;5091613;28;20387;-73
2022/04/13 07:14:06;;;;;;;;;;;;;;;;;;5092313;28;19962;-73
2022/04/13 07:16:32;;;;;;;;;;;;;;;;;;5092149;28;20350;-72
2022/04/13 07:18:58;;;;;;;;;;;;;;;;;;5091412;28;19913;-73
2022/04/13 07:21:24;;;;;;;;;;;;;;;;;;5092368;28;19916;-72
2022/04/13 07:23:49;;;;;;;;;;;;;;;;;;5091409;28;19923;-72
2022/04/13 07:26:16;;;;;;;;;;;;;;;;;;5074031;28;19912;-73
2022/04/13 07:28:41;;;;;;;;;;;;;;;;;;5091463;28;19912;-73
2022/04/13 07:31:07;;;;;;;;;;;;;;;;;;5073876;28;20257;-73
2022/04/13 07:33:34;;;;;;;;;;;;;;;;;;5092102;28;19915;-74
2022/04/13 07:35:59;;;;;;;;;;;;;;;;;;5091345;28;20010;-73
2022/04/13 07:38:25;;;;;;;;;;;;;;;;;;5092061;28;19955;-73
2022/04/13 07:40:51;;;;;;;;;;;;;;;;;;5092073;28;20352;-73
2022/04/13 07:43:18;;;;;;;;;;;;;;;;;;5080773;28;20373;-73
2022/04/13 07:45:44;;;;;;;;;;;;;;;;;;5074781;28;19912;-73
2022/04/13 07:48:10;;;;;;;;;;;;;;;;;;5075679;28;20390;-73
2022/04/13 07:50:36;;;;;;;;;;;;;;;;;;5075423;28;20007;-73
2022/04/13 07:53:02;;;;;;;;;;;;;;;;;;5074620;28;20467;-73
2022/04/13 07:55:28;;;;;;;;;;;;;;;;;;5075209;28;19925;-73
2022/04/13 07:57:54;;;;;;;;;;;;;;;;;;5074585;28;19908;-73
2022/04/13 08:00:19;;;;;;;;;;;;;;;;;;5075296;28;19909;-73
2022/04/13 08:02:45;;;;;;;;;;;;;;;;;;5074485;28;19978;-73
2022/04/13 08:05:12;;;;;;;;;;;;;;;;;;5075244;28;19920;-74
2022/04/13 08:07:38;;;;;;;;;;;;;;;;;;5075210;28;20408;-74
2022/04/13 08:10:04;;;;;;;;;;;;;;;;;;5056463;28;19956;-74
2022/04/13 08:12:30;;;;;;;;;;;;;;;;;;5082003;28;19915;-74
2022/04/13 08:14:56;;;;;;;;;;;;;;;;;;5094603;28;19908;-74
2022/04/13 08:17:23;;;;;;;;;;;;;;;;;;5095205;28;19908;-74
2022/04/13 08:19:49;;;;;;;;;;;;;;;;;;5094467;28;19912;-73
2022/04/13 08:22:17;;;;;;;;;;;;;;;;;;5095122;28;19919;-73
2022/04/13 08:24:43;;;;;;;;;;;;;;;;;;5094916;28;19920;-73
2022/04/13 08:27:10;;;;;;;;;;;;;;;;;;5094776;28;19916;-73
2022/04/13 08:29:36;;;;;;;;;;;;;;;;;;5095005;28;20360;-73
2022/04/13 08:32:01;;;;;;;;;;;;;;;;;;5094149;28;19974;-72
2022/04/13 08:34:27;;;;;;;;;;;;;;;;;;5094942;28;19908;-72
2022/04/13 08:36:54;;;;;;;;;;;;;;;;;;5094119;28;19908;-72
2022/04/13 08:39:19;;;;;;;;;;;;;;;;;;5094877;28;19915;-72
2022/04/13 08:41:46;;;;;;;;;;;;;;;;;;5075965;28;19912;-72
2022/04/13 08:44:12;;;;;;;;;;;;;;;;;;5094689;28;19938;-73
2022/04/13 08:46:38;;;;;;;;;;;;;;;;;;5094670;28;20308;-72
2022/04/13 08:49:04;;;;;;;;;;;;;;;;;;5093745;28;19911;-72
2022/04/13 08:51:30;;;;;;;;;;;;;;;;;;5076225;28;20272;-72
2022/04/13 08:53:56;;;;;;;;;;;;;;;;;;5093528;28;19920;-74
2022/04/13 08:56:22;;;;;;;;;;;;;;;;;;5094672;28;19915;-74
2022/04/13 08:58:48;;;;;;;;;;;;;;;;;;5093544;28;19943;-74
2022/04/13 09:01:15;;;;;;;;;;;;;;;;;;5094288;28;20372;-74
2022/04/13 09:03:41;;;;;;;;;;;;;;;;;;5094300;28;19961;-74
2022/04/13 09:06:07;;;;;;;;;;;;;;;;;;5093525;28;19904;-72
2022/04/13 09:08:33;;;;;;;;;;;;;;;;;;5094307;28;19908;-72
2022/04/13 09:10:59;;;;;;;;;;;;;;;;;;5093422;28;19908;-72
2022/04/13 09:13:25;;;;;;;;;;;;;;;;;;5094106;28;19912;-72
2022/04/13 09:15:51;;;;;;;;;;;;;;;;;;5093354;28;20385;-72
2022/04/13 09:18:17;;;;;;;;;;;;;;;;;;5094122;28;19908;-72
2022/04/13 09:20:43;;;;;;;;;;;;;;;;;;5094039;28;19908;-72
2022/04/13 09:23:09;;;;;;;;;;;;;;;;;;5075051;28;20291;-72
2022/04/13 09:25:36;;;;;;;;;;;;;;;;;;5093729;28;19931;-72
2022/04/13 09:28:02;;;;;;;;;;;;;;;;;;5093151;28;19915;-72
2022/04/13 09:30:28;;;;;;;;;;;;;;;;;;5093920;28;19908;-72
2022/04/13 09:32:54;;;;;;;;;;;;;;;;;;5092949;28;20353;-72
2022/04/13 09:35:20;;;;;;;;;;;;;;;;;;5093777;28;19914;-72
2022/04/13 09:37:46;;;;;;;;;;;;;;;;;;5093576;28;19958;-72
2022/04/13 09:40:11;;;;;;;;;;;;;;;;;;5093109;28;20286;-72
2022/04/13 09:42:37;;;;;;;;;;;;;;;;;;5093466;28;19912;-72
2022/04/13 09:45:03;;;;;;;;;;;;;;;;;;5092615;28;19919;-72
2022/04/13 09:47:30;;;;;;;;;;;;;;;;;;5093490;28;20372;-72
2022/04/13 09:49:56;;;;;;;;;;;;;;;;;;5092733;28;19919;-72
2022/04/13 09:52:22;;;;;;;;;;;;;;;;;;5093319;28;19908;-72
2022/04/13 09:54:48;;;;;;;;;;;;;;;;;;5092863;28;19931;-73
2022/04/13 09:57:14;;;;;;;;;;;;;;;;;;5092966;28;20279;-72
2022/04/13 09:59:39;;;;;;;;;;;;;;;;;;5093516;28;19947;-72
2022/04/13 10:02:05;;;;;;;;;;;;;;;;;;5092502;28;19916;-72
2022/04/13 10:04:31;;;;;;;;;;;;;;;;;;5092644;28;20010;-72
2022/04/13 10:06:57;;;;;;;;;;;;;;;;;;5092583;28;19959;-72
2022/04/13 10:09:23;;;;;;;;;;;;;;;;;;5092675;28;20440;-72
2022/04/13 10:11:49;;;;;;;;;;;;;;;;;;5092615;28;19908;-73
2022/04/13 10:14:15;;;;;;;;;;;;;;;;;;5084836;28;19916;-72
2022/04/13 10:16:41;;;;;;;;;;;;;;;;;;5080732;28;20273;-72
2022/04/13 10:19:07;;;;;;;;;;;;;;;;;;5082613;28;19961;-72
2022/04/13 10:21:33;;;;;;;;;;;;;;;;;;5082061;28;20292;-72
2022/04/13 10:23:59;;;;;;;;;;;;;;;;;;5080919;28;19916;-72
2022/04/13 10:26:25;;;;;;;;;;;;;;;;;;5083558;28;19908;-72
2022/04/13 10:28:51;;;;;;;;;;;;;;;;;;5091649;28;19912;-72
2022/04/13 10:31:17;;;;;;;;;;;;;;;;;;5092377;28;20357;-72
2022/04/13 10:33:43;;;;;;;;;;;;;;;;;;5092579;28;19908;-72
2022/04/13 10:36:08;;;;;;;;;;;;;;;;;;5091720;28;19914;-72
2022/04/13 10:38:34;;;;;;;;;;;;;;;;;;5092348;28;19916;-72
2022/04/13 10:41:00;;;;;;;;;;;;;;;;;;5092128;28;19908;-73
2022/04/13 10:43:26;;;;;;;;;;;;;;;;;;5092460;28;19908;-72
2022/04/13 10:45:52;;;;;;;;;;;;;;;;;;5091888;28;20376;-73
2022/04/13 10:48:18;;;;;;;;;;;;;;;;;;5092314;28;19991;-72
2022/04/13 10:50:44;;;;;;;;;;;;;;;;;;5092516;28;19930;-72
2022/04/13 10:53:10;;;;;;;;;;;;;;;;;;5091691;28;19908;-72
2022/04/13 10:55:36;;;;;;;;;;;;;;;;;;5092210;28;20380;-72
2022/04/13 10:58:02;;;;;;;;;;;;;;;;;;5091624;28;19909;-72
2022/04/13 11:00:28;;;;;;;;;;;;;;;;;;5092006;28;19920;-72
2022/04/13 11:02:53;;;;;;;;;;;;;;;;;;5077885;28;19912;-73
2022/04/13 11:05:19;;;;;;;;;;;;;;;;;;5077520;28;19916;-74
2022/04/13 11:07:45;;;;;;;;;;;;;;;;;;5092353;28;19938;-73
2022/04/13 11:10:11;;;;;;;;;;;;;;;;;;5091556;28;20189;-73
2022/04/13 11:12:37;;;;;;;;;;;;;;;;;;5092204;28;19908;-73
2022/04/13 11:15:03;;;;;;;;;;;;;;;;;;5091464;28;20014;-74
2022/04/13 11:17:30;;;;;;;;;;;;;;;;;;5096087;28;19994;-73
2022/04/13 11:19:56;;;;;;;;;;;;;;;;;;5095764;28;19912;-73
2022/04/13 11:22:23;;;;;;;;;;;;;;;;;;5078158;28;19930;-73
2022/04/13 11:24:50;;;;;;;;;;;;;;;;;;5096252;28;19955;-73
2022/04/13 11:27:16;;;;;;;;;;;;;;;;;;5095501;28;19995;-73
2022/04/13 11:29:42;;;;;;;;;;;;;;;;;;5096192;28;19912;-73
2022/04/13 11:32:09;;;;;;;;;;;;;;;;;;5095333;28;19931;-73
2022/04/13 11:34:35;;;;;;;;;;;;;;;;;;5096098;28;19912;-73
2022/04/13 11:37:01;;;;;;;;;;;;;;;;;;5095293;28;20387;-74
2022/04/13 11:39:27;;;;;;;;;;;;;;;;;;5086939;28;19912;-74
2022/04/13 11:41:53;;;;;;;;;;;;;;;;;;5084381;28;19909;-74
2022/04/13 11:44:19;;;;;;;;;;;;;;;;;;5093275;28;19912;-74
2022/04/13 11:46:45;;;;;;;;;;;;;;;;;;5071383;28;19912;-72
2022/04/13 11:49:11;;;;;;;;;;;;;;;;;;5087209;28;19919;-72
2022/04/13 11:51:37;;;;;;;;;;;;;;;;;;5086052;28;19916;-72
2022/04/13 11:54:03;;;;;;;;;;;;;;;;;;5094578;28;19924;-72
2022/04/13 11:56:29;;;;;;;;;;;;;;;;;;5077453;28;20366;-73
2022/04/13 11:58:55;;;;;;;;;;;;;;;;;;5095355;28;19915;-73
2022/04/13 12:01:20;;;;;;;;;;;;;;;;;;5094933;28;20507;-72
2022/04/13 12:03:46;;;;;;;;;;;;;;;;;;5095320;28;19908;-72
2022/04/13 12:06:12;;;;;;;;;;;;;;;;;;5094620;28;19916;-72
2022/04/13 12:08:38;;;;;;;;;;;;;;;;;;5095454;28;19947;-72
2022/04/13 12:11:04;;;;;;;;;;;;;;;;;;5094564;28;20417;-73
2022/04/13 12:13:33;;;;;;;;;;;;;;;;;;5095156;28;20437;-72
2022/04/13 12:15:59;;;;;;;;;;;;;;;;;;5094616;28;20317;-73
2022/04/13 12:18:25;;;;;;;;;;;;;;;;;;5095284;28;19908;-72
2022/04/13 12:20:50;;;;;;;;;;;;;;;;;;5095173;28;19908;-72
2022/04/13 12:23:16;;;;;;;;;;;;;;;;;;5094581;28;20478;-72
2022/04/13 12:25:42;;;;;;;;;;;;;;;;;;5077004;28;20022;-72
2022/04/13 12:28:08;;;;;;;;;;;;;;;;;;5092968;28;19916;-73
2022/04/13 12:30:34;;;;;;;;;;;;;;;;;;5090856;28;19912;-72
2022/04/13 12:33:00;;;;;;;;;;;;;;;;;;5093085;28;20223;-73
2022/04/13 12:35:26;;;;;;;;;;;;;;;;;;5094951;28;19908;-72
2022/04/13 12:37:52;;;;;;;;;;;;;;;;;;5085973;28;19909;-72
2022/04/13 12:40:18;;;;;;;;;;;;;;;;;;5074530;28;19909;-72
2022/04/13 12:42:44;;;;;;;;;;;;;;;;;;5074492;28;20285;-72
2022/04/13 12:45:10;;;;;;;;;;;;;;;;;;5093882;28;19912;-76
2022/04/13 12:47:35;;;;;;;;;;;;;;;;;;5094657;28;19913;-72
2022/04/13 12:50:02;;;;;;;;;;;;;;;;;;5093716;28;20280;-73
2022/04/13 12:52:28;;;;;;;;;;;;;;;;;;5091348;28;19922;-73
2022/04/13 12:54:54;;;;;;;;;;;;;;;;;;5094301;28;19953;-74
2022/04/13 12:57:19;;;;;;;;;;;;;;;;;;5092160;28;19904;-74
2022/04/13 12:59:45;;;;;;;;;;;;;;;;;;5076358;28;19916;-75
2022/04/13 13:02:14;;;;;;;;;;;;;;;;;;5074196;28;19913;-74
2022/04/13 13:04:40;;;;;;;;;;;;;;;;;;5077933;28;19925;-74
2022/04/13 13:07:06;;;;;;;;;;;;;;;;;;5091031;28;19908;-74
2022/04/13 13:09:32;;;;;;;;;;;;;;;;;;5058670;28;20374;-74
2022/04/13 13:11:58;;;;;;;;;;;;;;;;;;5073992;28;19962;-74
2022/04/13 13:14:24;;;;;;;;;;;;;;;;;;5088267;28;19912;-73
2022/04/13 13:16:50;;;;;;;;;;;;;;;;;;5089461;28;19947;-74
2022/04/13 13:19:16;;;;;;;;;;;;;;;;;;5073059;28;19912;-75
2022/04/13 13:21:42;;;;;;;;;;;;;;;;;;5073706;28;19912;-74
2022/04/13 13:24:07;;;;;;;;;;;;;;;;;;5074471;28;19917;-76
2022/04/13 13:26:33;;;;;;;;;;;;;;;;;;5073771;28;19961;-75
2022/04/13 13:29:00;;;;;;;;;;;;;;;;;;5076661;28;19916;-74
2022/04/13 13:31:26;;;;;;;;;;;;;;;;;;5080515;28;19937;-75
2022/04/13 13:33:52;;;;;;;;;;;;;;;;;;5090386;28;19908;-75
2022/04/13 13:36:18;;;;;;;;;;;;;;;;;;5089739;28;20285;-74
2022/04/13 13:38:43;;;;;;;;;;;;;;;;;;5089839;28;19915;-75
2022/04/13 13:41:09;;;;;;;;;;;;;;;;;;5081042;28;19916;-74
2022/04/13 13:43:37;;;;;;;;;;;;;;;;;;5075582;28;19921;-74
2022/04/13 13:46:03;;;;;;;;;;;;;;;;;;5069243;28;19916;-74
2022/04/13 13:48:29;;;;;;;;;;;;;;;;;;5078804;28;19916;-74
2022/04/13 13:50:55;;;;;;;;;;;;;;;;;;5085649;28;20011;-74
2022/04/13 13:53:21;;;;;;;;;;;;;;;;;;5080553;28;20686;-74
2022/04/13 13:55:47;;;;;;;;;;;;;;;;;;5073598;28;19932;-74
2022/04/13 13:58:13;;;;;;;;;;;;;;;;;;5051029;28;19908;-74
2022/04/13 14:00:39;;;;;;;;;;;;;;;;;;5054107;28;19916;-74
2022/04/13 14:03:05;;;;;;;;;;;;;;;;;;5072260;28;19912;-75
2022/04/13 14:05:31;;;;;;;;;;;;;;;;;;5072834;28;19962;-75
2022/04/13 14:07:57;;;;;;;;;;;;;;;;;;5072834;28;20357;-75
2022/04/13 14:10:23;;;;;;;;;;;;;;;;;;5054159;28;19927;-74
2022/04/13 14:12:49;;;;;;;;;;;;;;;;;;5072463;28;19912;-75
2022/04/13 14:15:15;;;;;;;;;;;;;;;;;;5088739;28;19915;-74
2022/04/13 14:17:41;;;;;;;;;;;;;;;;;;5074727;28;20277;-75
2022/04/13 14:20:07;;;;;;;;;;;;;;;;;;5092085;28;19908;-74
2022/04/13 14:22:33;;;;;;;;;;;;;;;;;;5092848;28;19908;-75
2022/04/13 14:24:58;;;;;;;;;;;;;;;;;;5092992;28;19920;-75
2022/04/13 14:27:25;;;;;;;;;;;;;;;;;;5091991;28;20448;-75
2022/04/13 14:29:50;;;;;;;;;;;;;;;;;;5092783;28;19947;-75
2022/04/13 14:32:16;;;;;;;;;;;;;;;;;;5073771;28;20001;-75
2022/04/13 14:34:42;;;;;;;;;;;;;;;;;;5092654;28;19919;-75
2022/04/13 14:37:08;;;;;;;;;;;;;;;;;;5091916;28;19908;-74
2022/04/13 14:39:34;;;;;;;;;;;;;;;;;;5092637;28;19908;-75
2022/04/13 14:42:00;;;;;;;;;;;;;;;;;;5092641;28;19908;-75
2022/04/13 14:44:26;;;;;;;;;;;;;;;;;;5083000;28;20369;-75
2022/04/13 14:46:52;;;;;;;;;;;;;;;;;;5072347;28;19998;-75
2022/04/13 14:49:18;;;;;;;;;;;;;;;;;;5071459;28;20305;-74
2022/04/13 14:51:44;;;;;;;;;;;;;;;;;;5072274;28;19915;-75
2022/04/13 14:54:10;;;;;;;;;;;;;;;;;;5053332;28;19931;-74
2022/04/13 14:56:35;;;;;;;;;;;;;;;;;;5072281;28;19912;-75
2022/04/13 14:59:01;;;;;;;;;;;;;;;;;;5071731;28;19915;-75
2022/04/13 15:01:27;;;;;;;;;;;;;;;;;;5071114;28;19912;-75
2022/04/13 15:03:53;;;;;;;;;;;;;;;;;;5072162;28;19999;-75
2022/04/13 15:06:24;;;;;;;;;;;;;;;;;;5071409;28;19998;-75
2022/04/13 15:08:50;;;;;;;;;;;;;;;;;;5072092;28;20002;-75
2022/04/13 15:11:18;;;;;;;;;;;19.20;11.70;;;;;;5071408;28;19950;-74
2022/04/13 15:13:43;;;;;;;;;;;19.40;13.70;;;;;;5055314;28;20261;-75
2022/04/13 15:16:09;;;;;;;;;;;;;;;;;;5091688;28;19937;-74
2022/04/13 15:18:35;;;;;;;;;;;19.30;10.50;;;;;;5092080;28;19965;-75
2022/04/13 15:21:00;;;;;;;;;;;19.10;10.50;;;;;;5073961;28;20368;-75
2022/04/13 15:23:26;;;;;;;;;;;19.30;11.40;;;;;;5073170;28;19916;-75
2022/04/13 15:25:51;;;;;;;;;;;19.30;13.70;;;;;;5092135;28;19912;-75
2022/04/13 15:28:17;;;;;;;;;;;19.20;12.80;;;;;;5091366;28;19908;-75
2022/04/13 15:30:43;;;;;;;;;;;;;;;;;;5092180;28;19961;-75
2022/04/13 15:33:09;;;;;;;;;;;;;;;;;;5091870;28;19914;-74
2022/04/13 15:35:35;;;;;;;;;;;;;;;;;;5092729;28;20425;-75
2022/04/13 15:38:01;;;;;;;;;;;;;;;;;;5093057;28;19912;-75
2022/04/13 15:40:26;;;;;;;;;;;;;;;;;;5091736;28;19934;-74
2022/04/13 15:42:52;;;;;;;;;;;;;;;;;;5084276;28;19908;-75
2022/04/13 15:45:19;;;;;;;;;;;;;;;;;;5082284;28;20360;-75
2022/04/13 15:47:45;;;;;;;;;;;;;;;;;;5091933;28;19915;-80
2022/04/13 15:50:11;;;;;;;;;;;;;;;;;;5091715;28;19908;-74
2022/04/13 15:52:37;;;;;;;;;;;;;;;;;;5073788;28;20288;-73
2022/04/13 15:55:03;;;;;;;;;;;;;;;;;;5091695;28;19945;-73
2022/04/13 15:57:29;;;;;;;;;;;;;;;;;;5091177;28;19935;-78
2022/04/13 15:59:55;;;;;;;;;;;;;;;;;;5091866;28;19908;-75
2022/04/13 16:02:21;;;;;;;;;;;;;;;;;;5079836;28;19958;-74
2022/04/13 16:04:47;;;;;;;;;;;;;;;;;;5057195;28;19913;-74
2022/04/13 16:07:13;;;;;;;;;;;;;;;;;;5074450;28;19915;-74
2022/04/13 16:09:39;;;;;;;;;;;;;;;;;;5087379;28;19956;-75
2022/04/13 16:12:07;;;;;;;;;;;18.50;19.60;;;;;;5088858;28;19912;-75
2022/04/13 16:14:33;;;;;;;;;;;18.50;16.70;;;;;;5070026;28;20319;-75
2022/04/13 16:16:59;;;;;;;;;;;18.60;17.10;;;;;;5075030;28;19909;-74
2022/04/13 16:19:25;;;;;;;;;;;18.20;20.40;;;;;;5074455;28;19908;-74
2022/04/13 16:21:51;;;;;;;;;;;;;;;;;;5074770;28;20006;-74
2022/04/13 16:24:16;;;;;;;;;;;18.10;21.10;;;;;;5073809;28;19927;-74
2022/04/13 16:26:42;;;;;;;;;;;;;;;;;;5074856;28;19931;-74
2022/04/13 16:29:08;;;;;;;;;;;;;;;;;;5074809;28;19909;-74
2022/04/13 16:31:35;;;;;;;;;;;;;;;;;;5056295;28;20461;-74
2022/04/13 16:34:00;;;;;;;;;;;;;;;;;;5094783;28;19908;-74